Search for airport 
image banner adimage banner adimage banner ad
image banner ad

KDWA - Yolo County

Located in Davis/Woodland/Winters, United States

ICAO - DWA, IATA -

Data provided by Airmate  

General information

Coordinates: N38°34'46" W121°51'25"
Elevation is 100 feet MSL.
Magnetic variation is 16° East
View others Airports in California

Operational data

Special qualification required
Current time UTC:
Current local time:
Weather at : KEDU - University ( 8 km )
METAR: KEDU 221455Z AUTO 20006KT 10SM CLR 18/12 A2987 RMK AO1
View NOTAMs / SUP AIP / TFR affecting this airport [VIEW]
Communications frequencies: [VIEW]

Runways:

RWY identifierQFULength (ft)Width (ft)SurfaceLDA (ft)
16180°6000100ASPH
346000100ASPH

Airport contact information

Address: Davis/Woodland/Winters United States

Satellite view of KDWA